Time;durP1;ratioP1;P1;durP2;ratioP2;P2;SDS_P1;SDS_P2;PMS_P1;PMS_P2;Temp;Humidity;BMP_temperature;BMP_pressure;BME280_temperature;BME280_humidity;BME280_pressure;Samples;Min_cycle;Max_cycle;Signal;HPM_P1;HPM_P2
2023/10/20 00:02:08;;;;;;;25.58;22.55;;;13.60;99.90;;;;;;5290788;28;20062;-75
2023/10/20 00:04:39;;;;;;;23.02;20.63;;;13.60;99.90;;;;;;5291312;28;20026;-76
2023/10/20 00:07:11;;;;;;;20.98;17.88;;;13.60;99.90;;;;;;5291153;28;20099;-75
2023/10/20 00:09:42;;;;;;;20.02;18.05;;;13.60;99.90;;;;;;5290979;28;20448;-75
2023/10/20 00:12:13;;;;;;;21.25;19.10;;;13.70;99.90;;;;;;5290899;28;20479;-78
2023/10/20 00:14:45;;;;;;;20.13;17.27;;;13.70;99.90;;;;;;5290487;28;20111;-75
2023/10/20 00:17:16;;;;;;;20.73;16.83;;;13.80;99.90;;;;;;5290723;28;20040;-76
2023/10/20 00:19:47;;;;;;;21.00;16.40;;;13.60;99.90;;;;;;5290900;28;20050;-75
2023/10/20 00:22:18;;;;;;;20.65;15.70;;;13.70;99.90;;;;;;5291161;28;20107;-75
2023/10/20 00:24:49;;;;;;;17.20;15.45;;;13.70;99.90;;;;;;5290621;28;20467;-75
2023/10/20 00:27:20;;;;;;;20.48;16.23;;;13.80;99.90;;;;;;5290384;28;20080;-75
2023/10/20 00:29:51;;;;;;;18.50;14.80;;;14.00;99.90;;;;;;5290759;28;20023;-75
2023/10/20 00:32:22;;;;;;;16.67;14.32;;;14.00;99.90;;;;;;5290657;28;20062;-75
2023/10/20 00:34:52;;;;;;;16.73;14.30;;;13.80;99.90;;;;;;5290703;28;20026;-75
2023/10/20 00:37:23;;;;;;;15.90;14.48;;;13.90;99.90;;;;;;5290595;28;20423;-75
2023/10/20 00:39:54;;;;;;;17.15;15.40;;;13.80;99.90;;;;;;5290553;28;20051;-76
2023/10/20 00:42:25;;;;;;;17.45;14.20;;;14.00;99.90;;;;;;5290060;28;20027;-75
2023/10/20 00:44:56;;;;;;;15.02;13.63;;;13.90;99.90;;;;;;5290494;28;20037;-76
2023/10/20 00:47:27;;;;;;;16.35;13.63;;;14.00;99.90;;;;;;5290154;28;20101;-76
2023/10/20 00:49:59;;;;;;;14.07;12.68;;;14.00;99.90;;;;;;5290164;28;20090;-75
2023/10/20 00:52:30;;;;;;;14.65;13.25;;;14.10;99.90;;;;;;5290322;28;20042;-75
2023/10/20 00:55:02;;;;;;;14.75;13.32;;;14.10;99.90;;;;;;5289150;28;20032;-75
2023/10/20 00:57:34;;;;;;;13.52;12.25;;;14.10;99.90;;;;;;5289883;28;20020;-75
2023/10/20 01:00:09;;;;;;;14.35;12.40;;;14.10;99.90;;;;;;5289670;28;20475;-75
2023/10/20 01:02:40;;;;;;;15.98;14.35;;;14.10;99.90;;;;;;5289898;28;20027;-77
2023/10/20 01:05:14;;;;;;;16.17;13.68;;;14.20;99.90;;;;;;5290029;28;20360;-75
2023/10/20 01:07:45;;;;;;;16.50;14.55;;;14.30;99.90;;;;;;5271753;28;20062;-76
2023/10/20 01:10:16;;;;;;;15.50;13.90;;;14.40;99.90;;;;;;5290168;28;20028;-77
2023/10/20 01:12:47;;;;;;;16.38;14.88;;;14.30;99.90;;;;;;5289861;28;20016;-75
2023/10/20 01:15:18;;;;;;;15.40;13.65;;;14.30;99.90;;;;;;5289942;28;20522;-75
2023/10/20 01:17:49;;;;;;;15.43;13.15;;;14.30;99.90;;;;;;5289724;28;20058;-76
2023/10/20 01:20:20;;;;;;;16.27;13.27;;;14.40;99.90;;;;;;5289946;28;20036;-75
2023/10/20 01:22:51;;;;;;;14.73;13.38;;;14.30;99.90;;;;;;5289778;28;20058;-75
2023/10/20 01:25:22;;;;;;;15.65;14.07;;;14.40;99.90;;;;;;5289639;28;20035;-77
2023/10/20 01:27:53;;;;;;;16.55;14.35;;;14.30;99.90;;;;;;5289708;28;20566;-74
2023/10/20 01:30:25;;;;;;;17.75;13.85;;;14.30;99.90;;;;;;5289596;28;20051;-75
2023/10/20 01:32:56;;;;;;;14.73;12.82;;;14.50;99.90;;;;;;5289742;28;20059;-77
2023/10/20 01:35:27;;;;;;;15.82;13.15;;;14.50;99.90;;;;;;5289880;28;20058;-75
2023/10/20 01:37:57;;;;;;;14.15;12.52;;;14.60;99.90;;;;;;5289694;28;20036;-75
2023/10/20 01:40:29;;;;;;;14.70;13.07;;;14.50;99.90;;;;;;5289855;28;20016;-76
2023/10/20 01:43:00;;;;;;;15.93;13.07;;;14.50;99.90;;;;;;5271407;28;20028;-76
2023/10/20 01:45:30;;;;;;;17.98;13.88;;;14.50;99.90;;;;;;5289360;28;20034;-77
2023/10/20 01:48:01;;;;;;;16.58;14.77;;;14.70;99.90;;;;;;5289124;28;20059;-75
2023/10/20 01:50:32;;;;;;;18.15;14.20;;;14.70;99.90;;;;;;5289092;28;20016;-76
2023/10/20 01:53:04;;;;;;;14.27;12.40;;;14.80;99.90;;;;;;5289130;28;20024;-76
2023/10/20 01:55:34;;;;;;;17.25;14.07;;;14.60;99.90;;;;;;5288972;28;20052;-76
2023/10/20 01:58:05;;;;;;;16.85;14.45;;;14.70;99.90;;;;;;5288870;28;20054;-75
2023/10/20 02:00:36;;;;;;;15.63;13.88;;;14.70;99.90;;;;;;5288699;28;20032;-75
2023/10/20 02:03:07;;;;;;;15.40;13.80;;;14.60;99.90;;;;;;5288905;28;20020;-75
2023/10/20 02:05:38;;;;;;;16.88;14.40;;;14.60;99.90;;;;;;5290406;28;20023;-76
2023/10/20 02:08:08;;;;;;;19.08;13.43;;;14.70;99.90;;;;;;5293403;28;20114;-76
2023/10/20 02:13:20;;;;;;;17.42;14.65;;;14.60;99.90;;;;;;5409457;22;20050;-75
2023/10/20 02:15:50;;;;;;;15.68;13.88;;;14.60;99.90;;;;;;5169113;28;20030;-74
2023/10/20 02:18:21;;;;;;;16.92;13.77;;;14.60;99.90;;;;;;5168936;28;20022;-77
2023/10/20 02:21:03;;;;;;;16.38;13.98;;;14.70;99.90;;;;;;5169139;28;20038;-78
2023/10/20 02:23:35;;;;;;;14.68;13.27;;;14.60;99.90;;;;;;5167809;28;20027;-77
2023/10/20 02:26:08;;;;;;;14.38;13.02;;;14.60;99.90;;;;;;5169317;28;20037;-78
2023/10/20 02:28:38;;;;;;;16.23;14.52;;;14.70;99.90;;;;;;5168856;28;20041;-75
2023/10/20 02:31:14;;;;;;;16.73;14.90;;;14.70;99.90;;;;;;5169079;28;20026;-77
2023/10/20 02:33:45;;;;;;;14.27;12.45;;;14.80;99.90;;;;;;5168902;28;20031;-77
2023/10/20 02:36:21;;;;;;;14.65;11.02;;;14.80;99.90;;;;;;5168855;28;20058;-78
2023/10/20 02:38:52;;;;;;;15.93;12.05;;;14.70;99.90;;;;;;5168470;28;20038;-77
2023/10/20 02:41:22;;;;;;;13.48;11.63;;;14.60;99.90;;;;;;5168399;28;20360;-77
2023/10/20 02:43:53;;;;;;;13.00;11.07;;;14.70;99.90;;;;;;5167932;28;20042;-77
2023/10/20 02:46:24;;;;;;;12.38;10.52;;;14.80;99.90;;;;;;5167969;28;20034;-77
2023/10/20 02:48:55;;;;;;;15.70;11.18;;;14.80;99.90;;;;;;5167889;28;20089;-77
2023/10/20 02:51:26;;;;;;;15.50;11.57;;;14.60;99.90;;;;;;5168474;28;20030;-79
2023/10/20 02:53:56;;;;;;;17.60;12.13;;;14.70;99.90;;;;;;5168176;28;20394;-77
2023/10/20 02:56:28;;;;;;;16.67;12.07;;;14.80;99.90;;;;;;5167955;28;20030;-78
2023/10/20 02:58:58;;;;;;;14.10;12.02;;;14.70;99.90;;;;;;5168325;28;20026;-77
2023/10/20 03:01:30;;;;;;;15.05;11.70;;;14.70;99.90;;;;;;5167624;28;20037;-77
2023/10/20 03:04:01;;;;;;;19.17;12.48;;;14.70;99.90;;;;;;5167782;28;20031;-76
2023/10/20 03:06:32;;;;;;;15.07;11.32;;;14.70;99.90;;;;;;5167728;28;20382;-77
2023/10/20 03:09:03;;;;;;;15.38;12.45;;;14.60;99.90;;;;;;5168018;28;20117;-77
2023/10/20 03:11:34;;;;;;;14.15;12.70;;;14.60;99.90;;;;;;5167449;28;20035;-78
2023/10/20 03:14:05;;;;;;;14.95;12.10;;;14.70;99.90;;;;;;5167789;28;20109;-77
2023/10/20 03:16:42;;;;;;;16.08;12.77;;;14.70;99.90;;;;;;5167036;28;20070;-77
2023/10/20 03:19:13;;;;;;;16.50;12.55;;;14.60;99.90;;;;;;5167821;28;20031;-77
2023/10/20 03:21:44;;;;;;;14.48;11.80;;;14.70;99.90;;;;;;5167805;28;20033;-78
2023/10/20 03:24:15;;;;;;;16.27;11.65;;;14.80;99.90;;;;;;5168024;28;20112;-77
2023/10/20 03:26:46;;;;;;;13.85;11.95;;;14.80;99.90;;;;;;5167716;28;20482;-77
2023/10/20 03:29:17;;;;;;;16.83;12.20;;;14.80;99.90;;;;;;5167730;28;20074;-77
2023/10/20 03:31:47;;;;;;;14.60;10.95;;;14.80;99.90;;;;;;5167998;28;20022;-78
2023/10/20 03:34:18;;;;;;;15.85;10.98;;;14.80;99.90;;;;;;5167882;28;20033;-78
2023/10/20 03:36:50;;;;;;;12.10;9.80;;;14.90;99.90;;;;;;5167452;28;20114;-78
2023/10/20 03:39:21;;;;;;;14.52;10.32;;;14.80;99.90;;;;;;5167435;28;20022;-78
2023/10/20 03:41:52;;;;;;;12.90;9.57;;;14.80;99.90;;;;;;5166959;28;20558;-77
2023/10/20 03:44:22;;;;;;;12.75;9.60;;;14.90;99.90;;;;;;5166925;28;20379;-77
2023/10/20 03:46:59;;;;;;;11.00;9.90;;;14.80;99.90;;;;;;5166605;28;20027;-79
2023/10/20 03:49:33;;;;;;;11.80;9.43;;;14.70;99.90;;;;;;5165486;28;20030;-77
2023/10/20 03:52:11;;;;;;;13.57;9.95;;;14.80;99.90;;;;;;5165627;28;20468;-78
2023/10/20 03:54:44;;;;;;;11.30;8.82;;;14.80;99.90;;;;;;5167078;28;20026;-78
2023/10/20 03:57:15;;;;;;;11.23;9.60;;;14.80;99.90;;;;;;5165798;28;20089;-78
2023/10/20 03:59:46;;;;;;;11.93;9.50;;;14.90;99.90;;;;;;5167441;28;20470;-78
2023/10/20 04:02:17;;;;;;;11.68;10.45;;;14.90;99.90;;;;;;5165990;28;20041;-79
2023/10/20 04:04:48;;;;;;;9.35;8.40;;;14.80;99.90;;;;;;5166925;28;20494;-78
2023/10/20 04:07:19;;;;;;;11.30;10.02;;;14.80;99.90;;;;;;5166830;28;20034;-78
2023/10/20 04:09:49;;;;;;;13.38;11.70;;;14.80;99.90;;;;;;5167189;28;20026;-79
2023/10/20 04:12:20;;;;;;;14.55;11.70;;;14.90;99.90;;;;;;5166565;28;20054;-78
2023/10/20 04:14:54;;;;;;;12.25;11.05;;;14.80;99.90;;;;;;5166832;28;20027;-77
2023/10/20 04:17:25;;;;;;;12.25;11.05;;;14.80;99.90;;;;;;5167002;28;20029;-77
2023/10/20 04:19:57;;;;;;;12.43;11.18;;;14.80;99.90;;;;;;5167179;28;20023;-77
2023/10/20 04:22:29;;;;;;;16.55;12.02;;;14.90;99.90;;;;;;5166799;28;20034;-78
2023/10/20 04:25:01;;;;;;;13.40;12.02;;;14.90;99.90;;;;;;5166677;28;20023;-78
2023/10/20 04:27:48;;;;;;;14.63;13.25;;;14.80;99.90;;;;;;5166522;28;20038;-79
2023/10/20 05:05:58;;;;;;;13.10;9.82;;;15.10;99.90;;;;;;5165973;28;20042;-77
2023/10/20 05:08:24;;;;;;;12.10;9.20;;;15.10;99.90;;;;;;5165824;28;20088;-77
2023/10/20 05:10:56;;;;;;;13.35;8.35;;;15.10;99.90;;;;;;5166083;28;20057;-78
2023/10/20 05:13:26;;;;;;;10.57;8.18;;;15.20;99.90;;;;;;5165740;28;20112;-77
2023/10/20 05:15:58;;;;;;;10.02;8.63;;;15.30;99.90;;;;;;5165880;28;20022;-77
2023/10/20 05:18:29;;;;;;;10.32;8.70;;;15.20;99.90;;;;;;5166044;28;20053;-76
2023/10/20 05:21:12;;;;;;;10.60;9.15;;;15.30;99.90;;;;;;5166093;28;20161;-77
2023/10/20 05:23:43;;;;;;;10.68;9.52;;;15.30;99.90;;;;;;5166136;28;20027;-77
2023/10/20 05:26:14;;;;;;;10.25;9.23;;;15.50;99.90;;;;;;5165798;28;20030;-77
2023/10/20 05:28:45;;;;;;;11.05;9.82;;;15.60;99.90;;;;;;5165298;28;20497;-77
2023/10/20 05:31:22;;;;;;;11.75;10.55;;;15.80;99.90;;;;;;5165471;28;20511;-78
2023/10/20 05:33:54;;;;;;;10.13;9.13;;;15.90;99.90;;;;;;5165511;28;20038;-76
2023/10/20 05:36:25;;;;;;;10.35;8.73;;;16.20;99.90;;;;;;5165205;28;20030;-78
2023/10/20 05:38:56;;;;;;;11.40;8.93;;;16.40;99.90;;;;;;5165073;28;20027;-77
2023/10/20 05:41:29;;;;;;;10.25;8.75;;;16.30;99.90;;;;;;5169151;28;20019;-77
2023/10/20 05:44:02;;;;;;;14.80;8.90;;;16.30;99.90;;;;;;5169499;28;20098;-76
2023/10/20 05:46:37;;;;;;;10.18;9.18;;;16.40;99.90;;;;;;5169546;28;20030;-77
2023/10/20 05:49:10;;;;;;;9.75;8.85;;;16.30;99.90;;;;;;5169614;28;20031;-78
2023/10/20 05:51:41;;;;;;;10.65;9.73;;;16.40;99.90;;;;;;5169756;28;20097;-77
2023/10/20 05:54:12;;;;;;;11.70;10.52;;;16.40;99.90;;;;;;5168674;28;20117;-78
2023/10/20 05:56:43;;;;;;;11.50;10.35;;;16.50;99.90;;;;;;5169879;28;20034;-77
2023/10/20 05:59:13;;;;;;;12.02;10.00;;;16.50;99.90;;;;;;5169766;28;20031;-77
2023/10/20 06:01:45;;;;;;;11.45;10.23;;;16.60;99.90;;;;;;5168243;28;20505;-78
2023/10/20 06:04:16;;;;;;;11.13;9.98;;;16.60;99.90;;;;;;5168800;28;20015;-79
2023/10/20 06:06:47;;;;;;;11.15;10.05;;;16.70;99.90;;;;;;5168955;28;20093;-78
2023/10/20 06:09:19;;;;;;;11.18;10.07;;;16.70;99.90;;;;;;5168851;28;20085;-79
2023/10/20 06:11:50;;;;;;;11.30;10.13;;;16.90;99.90;;;;;;5167268;28;20548;-79
2023/10/20 06:14:23;;;;;;;10.65;9.55;;;17.00;99.90;;;;;;5169059;28;20034;-76
2023/10/20 06:16:54;;;;;;;10.88;9.52;;;17.00;99.90;;;;;;5168837;28;20377;-77
2023/10/20 06:19:28;;;;;;;14.52;8.80;;;17.10;99.90;;;;;;5168325;28;20046;-76
2023/10/20 06:22:00;;;;;;;9.02;8.13;;;17.10;99.90;;;;;;5167469;28;20030;-76
2023/10/20 06:24:31;;;;;;;11.85;8.00;;;17.20;99.90;;;;;;5166874;28;20848;-77
2023/10/20 06:27:05;;;;;;;8.13;7.43;;;17.30;99.90;;;;;;5168809;28;20375;-78
2023/10/20 06:29:47;;;;;;;9.75;8.38;;;17.30;99.90;;;;;;5168329;28;20049;-78
2023/10/20 06:35:02;;;;;;;9.15;7.07;;;17.50;99.90;;;;;;5168644;28;20355;-78
2023/10/20 06:37:57;;;;;;;8.07;7.30;;;17.60;99.90;;;;;;5168898;28;20153;-78
2023/10/20 06:40:28;;;;;;;9.50;8.50;;;17.60;99.90;;;;;;5168241;28;20029;-77
2023/10/20 06:42:59;;;;;;;13.70;10.60;;;17.70;99.90;;;;;;5167249;28;20084;-78
2023/10/20 06:45:31;;;;;;;11.40;10.30;;;17.80;99.90;;;;;;5168474;28;20105;-77
2023/10/20 06:48:02;;;;;;;11.32;10.00;;;17.90;99.90;;;;;;5168608;28;20033;-77
2023/10/20 06:50:33;;;;;;;11.57;10.57;;;18.00;99.90;;;;;;5168758;28;20365;-78
2023/10/20 06:53:04;;;;;;;10.88;9.80;;;18.00;99.90;;;;;;5168057;28;20026;-75
2023/10/20 06:55:35;;;;;;;10.43;9.27;;;18.10;99.90;;;;;;5168784;28;20027;-76
2023/10/20 06:58:05;;;;;;;11.25;10.15;;;18.30;99.90;;;;;;5168450;28;20034;-78
2023/10/20 07:00:36;;;;;;;9.88;9.05;;;18.30;99.90;;;;;;5168268;28;20181;-77
2023/10/20 07:03:07;;;;;;;10.90;8.90;;;18.30;99.90;;;;;;5168323;28;20034;-78
2023/10/20 07:05:40;;;;;;;13.95;8.13;;;18.40;99.90;;;;;;5168468;28;20113;-76
2023/10/20 07:08:13;;;;;;;8.10;7.38;;;18.50;99.90;;;;;;5168108;28;20107;-77
2023/10/20 07:10:44;;;;;;;9.15;8.13;;;18.50;99.90;;;;;;5168196;28;20045;-79
2023/10/20 07:13:15;;;;;;;10.05;7.53;;;18.70;99.90;;;;;;5167810;28;20054;-76
2023/10/20 07:15:46;;;;;;;6.63;5.95;;;18.80;99.90;;;;;;5167759;28;20486;-78
2023/10/20 07:18:16;;;;;;;7.75;6.95;;;18.70;99.90;;;;;;5168036;28;20053;-78
2023/10/20 07:20:47;;;;;;;9.15;8.45;;;18.90;99.90;;;;;;5167672;28;20019;-77
2023/10/20 07:23:18;;;;;;;9.88;9.00;;;19.00;99.90;;;;;;5167462;28;20540;-76
2023/10/20 07:25:49;;;;;;;9.05;8.43;;;19.10;99.90;;;;;;5167145;28;20023;-77
2023/10/20 07:28:20;;;;;;;9.70;8.48;;;19.10;99.90;;;;;;5167260;28;20038;-77
2023/10/20 07:30:53;;;;;;;8.90;7.65;;;19.10;99.90;;;;;;5167345;28;20019;-77
2023/10/20 07:33:24;;;;;;;8.45;7.03;;;19.30;99.90;;;;;;5167471;28;20034;-77
2023/10/20 07:35:55;;;;;;;11.77;7.72;;;19.40;99.90;;;;;;5167208;28;20018;-76
2023/10/20 07:38:25;;;;;;;9.18;6.95;;;19.40;99.90;;;;;;5167374;28;20113;-78
2023/10/20 07:41:02;;;;;;;10.23;6.63;;;19.60;99.90;;;;;;5167892;28;20023;-77
2023/10/20 07:43:33;;;;;;;7.63;6.95;;;19.60;99.90;;;;;;5167315;28;20070;-76
2023/10/20 07:46:05;;;;;;;6.72;5.90;;;19.70;99.90;;;;;;5167256;28;20078;-77
2023/10/20 07:48:35;;;;;;;7.30;6.70;;;19.80;99.90;;;;;;5167046;28;20034;-77
2023/10/20 07:51:06;;;;;;;9.77;6.13;;;19.80;99.90;;;;;;5167515;28;20034;-78
2023/10/20 07:53:37;;;;;;;9.23;5.30;;;19.80;99.90;;;;;;5167658;28;20026;-78
2023/10/20 07:56:08;;;;;;;6.60;5.65;;;19.90;99.90;;;;;;5167299;28;20042;-76
2023/10/20 07:58:39;;;;;;;7.00;5.40;;;20.00;99.90;;;;;;5167428;28;20030;-77
2023/10/20 08:01:09;;;;;;;8.90;6.20;;;19.90;99.90;;;;;;5167117;28;20032;-77
2023/10/20 08:03:45;;;;;;;7.30;5.95;;;20.10;99.90;;;;;;5167030;28;20097;-77
2023/10/20 08:06:16;;;;;;;6.90;5.95;;;20.10;99.90;;;;;;5167049;28;20030;-76
2023/10/20 08:08:47;;;;;;;7.68;5.65;;;20.30;99.90;;;;;;5166924;28;20044;-77
2023/10/20 08:11:17;;;;;;;6.38;5.80;;;20.50;99.90;;;;;;5167038;28;20117;-78
2023/10/20 08:13:51;;;;;;;7.75;5.75;;;20.40;99.90;;;;;;5166737;28;20475;-77
2023/10/20 08:16:22;;;;;;;8.93;6.25;;;20.40;99.90;;;;;;5166745;28;20026;-76
2023/10/20 08:18:53;;;;;;;6.03;5.50;;;20.70;99.90;;;;;;5166132;28;20490;-78
2023/10/20 08:21:29;;;;;;;10.32;6.97;;;20.80;99.90;;;;;;5165158;28;20190;-76
2023/10/20 08:24:00;;;;;;;6.93;5.85;;;20.80;99.90;;;;;;5166410;28;20033;-76
2023/10/20 08:26:34;;;;;;;6.20;5.60;;;20.70;99.90;;;;;;5166099;28;20482;-76
2023/10/20 08:29:11;;;;;;;9.00;5.90;;;20.70;99.90;;;;;;5165789;28;20510;-77
2023/10/20 08:31:42;;;;;;;6.13;5.32;;;20.90;99.90;;;;;;5164726;28;20355;-78
2023/10/20 08:34:13;;;;;;;6.97;5.10;;;20.90;99.90;;;;;;5166500;28;20029;-78
2023/10/20 08:36:44;;;;;;;6.53;5.05;;;21.10;99.90;;;;;;5166362;28;20023;-78
2023/10/20 08:39:19;;;;;;;8.23;5.97;;;21.20;99.90;;;;;;5166429;28;20032;-79
2023/10/20 08:41:50;;;;;;;6.70;6.10;;;21.30;99.90;;;;;;5164778;28;20490;-77
2023/10/20 08:44:21;;;;;;;6.80;5.97;;;21.40;99.90;;;;;;5164947;28;20030;-78
2023/10/20 08:46:52;;;;;;;6.30;5.68;;;21.60;99.90;;;;;;5166141;28;20018;-76
2023/10/20 08:49:23;;;;;;;6.20;4.97;;;21.40;99.90;;;;;;5166228;28;20042;-78
2023/10/20 08:51:55;;;;;;;6.63;5.13;;;21.60;99.90;;;;;;5166357;28;20033;-78
2023/10/20 08:54:26;;;;;;;6.65;6.05;;;21.50;99.90;;;;;;5166314;28;20530;-77
2023/10/20 08:56:57;;;;;;;6.78;6.03;;;21.60;99.90;;;;;;5166050;28;20022;-77
2023/10/20 08:59:28;;;;;;;6.47;5.78;;;21.80;99.90;;;;;;5165864;28;20621;-79
2023/10/20 09:01:59;;;;;;;8.02;7.32;;;22.00;99.90;;;;;;5165930;28;20109;-76
2023/10/20 09:04:30;;;;;;;10.02;9.15;;;21.80;99.90;;;;;;5165880;28;20080;-76
2023/10/20 09:07:13;;;;;;;10.00;9.18;;;21.70;99.90;;;;;;5165931;28;20031;-76
2023/10/20 09:09:44;;;;;;;12.23;11.32;;;21.70;99.90;;;;;;5165480;28;20118;-77
2023/10/20 09:12:15;;;;;;;12.82;11.82;;;21.60;99.90;;;;;;5165232;28;20121;-77
2023/10/20 09:14:46;;;;;;;11.15;10.13;;;21.90;99.90;;;;;;5164710;28;20034;-78
2023/10/20 09:17:24;;;;;;;11.93;11.10;;;22.10;99.90;;;;;;5165348;28;20042;-76
2023/10/20 09:20:14;;;;;;;11.18;10.48;;;22.20;99.90;;;;;;5165241;28;20172;-77
2023/10/20 09:22:44;;;;;;;12.95;10.70;;;22.20;99.90;;;;;;5165046;28;20053;-78
2023/10/20 09:25:15;;;;;;;10.95;10.02;;;22.30;99.90;;;;;;5165138;28;20513;-79
2023/10/20 09:27:46;;;;;;;12.65;11.70;;;22.10;99.90;;;;;;5165410;28;20030;-78
2023/10/20 09:30:18;;;;;;;11.13;10.05;;;22.10;99.90;;;;;;5165739;28;20176;-76
2023/10/20 09:32:49;;;;;;;12.13;11.05;;;22.40;99.90;;;;;;5165681;28;20088;-78
2023/10/20 09:35:20;;;;;;;11.27;10.38;;;22.60;99.90;;;;;;5165795;28;20475;-78
2023/10/20 09:37:55;;;;;;;13.05;11.68;;;22.40;99.90;;;;;;5164447;28;20026;-77
2023/10/20 09:40:26;;;;;;;10.55;9.55;;;22.60;99.90;;;;;;5165636;28;20383;-76
2023/10/20 09:43:42;;;;;;;10.15;9.40;;;22.90;99.90;;;;;;5165329;28;20037;-79
2023/10/20 09:46:36;;;;;;;7.72;7.10;;;22.80;99.90;;;;;;5148513;28;20034;-77
2023/10/20 09:49:19;;;;;;;7.47;6.65;;;22.70;99.90;;;;;;5127366;28;20077;-79
2023/10/20 09:51:50;;;;;;;6.70;6.00;;;22.70;99.90;;;;;;5164574;28;20366;-79
2023/10/20 09:54:33;;;;;;;7.20;6.60;;;23.10;99.90;;;;;;5164075;28;20030;-78
2023/10/20 09:57:06;;;;;;;6.63;6.00;;;23.20;99.90;;;;;;5164112;28;20716;-78
2023/10/20 09:59:38;;;;;;;7.07;5.65;;;23.10;99.90;;;;;;5164990;28;20429;-77
2023/10/20 10:02:09;;;;;;;8.68;5.07;;;23.10;99.90;;;;;;5165011;28;20065;-77
2023/10/20 10:04:43;;;;;;;8.48;6.03;;;23.00;99.90;;;;;;5165076;28;20050;-77
2023/10/20 10:07:15;;;;;;;9.75;5.18;;;23.10;99.90;;;;;;5164910;28;20077;-77
2023/10/20 10:09:49;;;;;;;6.25;5.55;;;23.20;99.90;;;;;;5164698;28;20041;-78
2023/10/20 10:12:21;;;;;;;6.45;5.90;;;23.30;99.90;;;;;;5163814;28;20165;-79
2023/10/20 10:15:07;;;;;;;5.95;5.43;;;23.40;99.90;;;;;;5164134;28;20042;-79
2023/10/20 10:17:48;;;;;;;7.38;5.20;;;23.60;99.90;;;;;;5163889;28;20033;-77
2023/10/20 10:20:24;;;;;;;9.90;6.40;;;23.30;99.90;;;;;;5164115;28;20093;-77
2023/10/20 10:23:04;;;;;;;6.80;5.60;;;23.50;99.90;;;;;;5164640;28;20073;-77
2023/10/20 10:25:40;;;;;;;8.10;5.78;;;23.40;99.90;;;;;;5165189;28;20044;-78
2023/10/20 10:28:13;;;;;;;6.80;6.13;;;23.30;99.90;;;;;;5167845;28;20089;-78
2023/10/20 10:30:47;;;;;;;7.03;5.85;;;23.70;99.90;;;;;;5168728;28;20030;-77
2023/10/20 10:33:24;;;;;;;6.30;5.72;;;23.60;99.90;;;;;;5168724;28;20439;-77
2023/10/20 10:36:04;;;;;;;7.32;5.70;;;23.80;99.90;;;;;;5168613;28;20105;-77
2023/10/20 10:38:45;;;;;;;6.13;5.53;;;24.00;99.90;;;;;;5168370;28;20628;-77
2023/10/20 10:41:23;;;;;;;6.38;5.68;;;23.60;99.90;;;;;;5168580;28;20031;-76
2023/10/20 10:43:54;;;;;;;6.10;5.50;;;23.70;99.90;;;;;;5168618;28;20030;-76
2023/10/20 10:46:35;;;;;;;7.60;6.82;;;24.20;99.90;;;;;;5168685;28;20022;-76
2023/10/20 10:49:13;;;;;;;7.63;6.38;;;23.90;99.90;;;;;;5168069;28;20393;-77
2023/10/20 10:51:46;;;;;;;7.15;6.45;;;23.90;99.90;;;;;;5167012;28;20033;-76
2023/10/20 10:54:17;;;;;;;7.78;6.47;;;24.20;99.90;;;;;;5168302;28;20475;-79
2023/10/20 10:56:48;;;;;;;6.85;5.90;;;24.20;99.90;;;;;;5168086;28;20031;-75
2023/10/20 10:59:20;;;;;;;7.45;6.75;;;24.20;99.90;;;;;;5167856;28;20031;-77
2023/10/20 11:01:50;;;;;;;7.35;6.38;;;24.60;99.90;;;;;;5167304;28;20034;-76
2023/10/20 11:04:22;;;;;;;9.20;5.32;;;24.30;99.90;;;;;;5167028;28;20403;-76
2023/10/20 11:06:53;;;;;;;8.60;5.82;;;24.30;99.90;;;;;;5167116;28;20034;-78
2023/10/20 11:09:29;;;;;;;7.38;6.68;;;24.30;99.90;;;;;;5167031;28;20060;-76
2023/10/20 11:12:01;;;;;;;7.30;5.32;;;24.40;99.90;;;;;;5166889;28;20177;-78
2023/10/20 11:14:31;;;;;;;7.57;5.63;;;24.40;99.90;;;;;;5166852;28;20042;-76
2023/10/20 11:17:03;;;;;;;8.15;5.10;;;24.50;99.90;;;;;;5166619;28;20029;-77
2023/10/20 11:19:34;;;;;;;6.85;6.13;;;24.10;99.90;;;;;;5167266;28;20586;-77
2023/10/20 11:22:15;;;;;;;11.27;5.40;;;24.20;99.90;;;;;;5167791;28;20109;-77
2023/10/20 11:24:53;;;;;;;7.63;6.22;;;24.00;99.90;;;;;;5167635;28;20062;-77
2023/10/20 11:27:24;;;;;;;6.78;5.55;;;24.40;99.90;;;;;;5167543;28;20056;-75
2023/10/20 11:29:58;;;;;;;6.75;6.25;;;24.60;99.90;;;;;;5167514;28;20030;-78
2023/10/20 11:32:29;;;;;;;7.30;5.43;;;24.80;99.90;;;;;;5167218;28;20114;-76
2023/10/20 11:35:00;;;;;;;7.25;5.03;;;24.50;99.90;;;;;;5167181;28;20109;-78
2023/10/20 11:37:31;;;;;;;8.02;5.43;;;24.40;99.90;;;;;;5167135;28;20030;-78
2023/10/20 11:40:03;;;;;;;6.10;4.97;;;24.40;99.90;;;;;;5167408;28;20027;-78
2023/10/20 11:42:33;;;;;;;8.15;5.78;;;24.40;99.90;;;;;;5166882;28;20034;-78
2023/10/20 11:45:05;;;;;;;7.18;5.65;;;24.40;99.90;;;;;;5167249;28;20493;-76
2023/10/20 11:47:40;;;;;;;6.32;4.97;;;24.50;99.90;;;;;;5167126;28;20030;-78
2023/10/20 11:50:11;;;;;;;6.53;5.82;;;24.20;99.90;;;;;;5167011;28;20108;-77
2023/10/20 11:52:42;;;;;;;8.23;5.30;;;24.50;99.90;;;;;;5167159;28;20022;-78
2023/10/20 11:55:13;;;;;;;10.07;5.90;;;24.50;99.90;;;;;;5167306;28;20438;-76
2023/10/20 11:57:44;;;;;;;6.43;5.10;;;24.70;99.90;;;;;;5166762;28;20054;-76
2023/10/20 12:00:15;;;;;;;9.10;5.03;;;24.60;99.90;;;;;;5166962;28;20031;-76
2023/10/20 12:02:46;;;;;;;6.03;5.38;;;24.50;99.90;;;;;;5166077;28;20031;-77
2023/10/20 12:05:16;;;;;;;11.20;4.90;;;24.70;99.90;;;;;;5166146;28;20022;-77
2023/10/20 12:07:47;;;;;;;6.45;5.70;;;24.40;99.90;;;;;;5166082;28;20037;-75
2023/10/20 12:10:18;;;;;;;9.40;5.00;;;24.50;99.90;;;;;;5166235;28;20038;-77
2023/10/20 12:12:51;;;;;;;7.45;5.35;;;24.40;99.90;;;;;;5165584;28;20762;-77
2023/10/20 12:15:22;;;;;;;9.18;5.30;;;24.50;99.90;;;;;;5166167;28;20022;-76
2023/10/20 12:17:53;;;;;;;9.60;5.75;;;24.50;99.90;;;;;;5166600;28;20038;-75
2023/10/20 12:20:24;;;;;;;7.07;5.70;;;24.50;99.90;;;;;;5166608;28;20026;-77
2023/10/20 12:22:58;;;;;;;8.32;5.90;;;24.70;99.90;;;;;;5166283;28;20037;-77
2023/10/20 12:25:29;;;;;;;5.25;4.78;;;24.40;99.90;;;;;;5167219;28;20049;-76
2023/10/20 12:28:00;;;;;;;7.63;4.70;;;24.60;99.90;;;;;;5166250;28;20085;-78
2023/10/20 12:30:32;;;;;;;10.75;4.60;;;24.70;99.90;;;;;;5166663;28;20030;-78
2023/10/20 12:33:05;;;;;;;10.95;4.95;;;24.70;99.90;;;;;;5166664;28;20069;-76
2023/10/20 12:35:36;;;;;;;5.53;5.03;;;24.50;99.90;;;;;;5166529;28;20561;-78
2023/10/20 12:38:07;;;;;;;5.80;5.20;;;24.60;99.90;;;;;;5166626;28;20142;-76
2023/10/20 12:40:41;;;;;;;6.75;5.80;;;24.50;99.90;;;;;;5166543;28;20378;-76
2023/10/20 12:43:12;;;;;;;15.30;5.10;;;24.40;99.90;;;;;;5166259;28;20431;-76
2023/10/20 12:45:43;;;;;;;6.65;5.38;;;24.40;99.90;;;;;;5166307;28;20029;-76
2023/10/20 12:48:14;;;;;;;7.03;5.32;;;24.60;99.90;;;;;;5166091;28;20132;-76
2023/10/20 12:50:44;;;;;;;8.57;5.68;;;24.40;99.90;;;;;;5165671;28;20022;-78
2023/10/20 12:53:15;;;;;;;7.93;5.82;;;24.50;99.90;;;;;;5165611;28;20092;-76
2023/10/20 12:55:46;;;;;;;7.20;5.65;;;24.70;99.90;;;;;;5166001;28;20482;-77
2023/10/20 12:58:17;;;;;;;6.13;5.50;;;24.70;99.90;;;;;;5165433;28;20405;-76
2023/10/20 13:00:47;;;;;;;11.63;5.13;;;24.60;99.90;;;;;;5165517;28;20052;-77
2023/10/20 13:03:18;;;;;;;8.73;5.50;;;24.50;99.90;;;;;;5165702;28;20058;-76
2023/10/20 13:05:49;;;;;;;8.35;5.93;;;24.40;99.90;;;;;;5165265;28;20029;-76
2023/10/20 13:08:20;;;;;;;7.28;5.63;;;24.60;99.90;;;;;;5165490;28;20042;-77
2023/10/20 13:10:51;;;;;;;6.70;6.10;;;24.60;99.90;;;;;;5165612;28;20026;-76
2023/10/20 13:13:22;;;;;;;7.45;4.63;;;24.60;99.90;;;;;;5165586;28;20536;-76
2023/10/20 13:15:53;;;;;;;5.25;4.72;;;24.40;99.90;;;;;;5165734;28;20019;-75
2023/10/20 13:18:26;;;;;;;7.05;5.40;;;24.40;99.90;;;;;;5165865;28;20050;-77
2023/10/20 13:21:00;;;;;;;9.25;5.40;;;24.60;99.90;;;;;;5166040;28;20041;-76
2023/10/20 13:23:32;;;;;;;8.00;4.55;;;24.50;99.90;;;;;;5166280;28;20034;-78
2023/10/20 13:26:06;;;;;;;10.35;4.72;;;24.30;99.90;;;;;;5165901;28;20027;-76
2023/10/20 13:28:37;;;;;;;8.18;4.78;;;24.20;99.90;;;;;;5165516;28;20037;-78
2023/10/20 13:31:09;;;;;;;8.57;5.13;;;24.30;99.90;;;;;;5165848;28;20124;-75
2023/10/20 13:33:40;;;;;;;11.98;5.32;;;24.10;99.90;;;;;;5165568;28;20050;-76
2023/10/20 13:36:11;;;;;;;11.05;5.15;;;24.00;99.90;;;;;;5165945;28;20061;-76
2023/10/20 13:38:43;;;;;;;9.27;4.95;;;24.00;99.90;;;;;;5165986;28;20414;-76
2023/10/20 13:41:13;;;;;;;6.72;4.50;;;24.00;99.90;;;;;;5165753;28;20024;-75
2023/10/20 13:43:44;;;;;;;6.95;5.47;;;24.00;99.90;;;;;;5165810;28;20042;-76
2023/10/20 13:46:16;;;;;;;13.63;5.95;;;23.80;99.90;;;;;;5164516;28;20092;-77